sensor_id;sensor_type;location;lat;lon;timestamp;temperature;humidity
6536;DHT22;34330;52.08032700;5.40923460;2023-04-25T00:00:25;10.40;84.70
6536;DHT22;34330;52.08032700;5.40923460;2023-04-25T00:02:53;10.40;84.80
6536;DHT22;34330;52.08032700;5.40923460;2023-04-25T00:05:23;10.30;84.70
6536;DHT22;34330;52.08032700;5.40923460;2023-04-25T00:07:51;10.30;84.80
6536;DHT22;34330;52.08032700;5.40923460;2023-04-25T00:10:21;10.20;84.60
6536;DHT22;34330;52.08032700;5.40923460;2023-04-25T00:12:49;10.20;84.50
6536;DHT22;34330;52.08032700;5.40923460;2023-04-25T00:15:17;10.60;84.90
6536;DHT22;34330;52.08032700;5.40923460;2023-04-25T00:17:45;10.20;84.90
6536;DHT22;34330;52.08032700;5.40923460;2023-04-25T00:20:13;10.20;85.10
6536;DHT22;34330;52.08032700;5.40923460;2023-04-25T00:22:42;10.10;85.20
6536;DHT22;34330;52.08032700;5.40923460;2023-04-25T00:25:10;10.10;85.10
6536;DHT22;34330;52.08032700;5.40923460;2023-04-25T00:27:39;10.10;85.50
6536;DHT22;34330;52.08032700;5.40923460;2023-04-25T00:30:09;10.10;85.80
6536;DHT22;34330;52.08032700;5.40923460;2023-04-25T00:32:37;10.10;85.90
6536;DHT22;34330;52.08032700;5.40923460;2023-04-25T00:35:05;10.10;85.80
6536;DHT22;34330;52.08032700;5.40923460;2023-04-25T00:37:33;10.10;85.80
6536;DHT22;34330;52.08032700;5.40923460;2023-04-25T00:40:01;10.10;85.80
6536;DHT22;34330;52.08032700;5.40923460;2023-04-25T00:42:30;10.30;85.80
6536;DHT22;34330;52.08032700;5.40923460;2023-04-25T00:45:01;10.80;86.30
6536;DHT22;34330;52.08032700;5.40923460;2023-04-25T00:47:29;10.10;85.80
6536;DHT22;34330;52.08032700;5.40923460;2023-04-25T00:49:57;10.10;85.70
6536;DHT22;34330;52.08032700;5.40923460;2023-04-25T00:52:24;10.10;85.80
6536;DHT22;34330;52.08032700;5.40923460;2023-04-25T00:54:52;10.10;85.80
6536;DHT22;34330;52.08032700;5.40923460;2023-04-25T00:57:20;10.10;85.70
6536;DHT22;34330;52.08032700;5.40923460;2023-04-25T00:59:51;10.10;85.70
6536;DHT22;34330;52.08032700;5.40923460;2023-04-25T01:02:21;10.10;85.80
6536;DHT22;34330;52.08032700;5.40923460;2023-04-25T01:04:49;10.20;85.60
6536;DHT22;34330;52.08032700;5.40923460;2023-04-25T01:07:17;10.20;85.20
6536;DHT22;34330;52.08032700;5.40923460;2023-04-25T01:09:45;10.20;85.20
6536;DHT22;34330;52.08032700;5.40923460;2023-04-25T01:12:14;10.20;85.10
6536;DHT22;34330;52.08032700;5.40923460;2023-04-25T01:14:42;10.20;84.90
6536;DHT22;34330;52.08032700;5.40923460;2023-04-25T01:17:10;10.30;84.90
6536;DHT22;34330;52.08032700;5.40923460;2023-04-25T01:19:39;10.20;84.30
6536;DHT22;34330;52.08032700;5.40923460;2023-04-25T01:22:08;10.10;84.50
6536;DHT22;34330;52.08032700;5.40923460;2023-04-25T01:24:37;10.10;84.50
6536;DHT22;34330;52.08032700;5.40923460;2023-04-25T01:27:05;10.10;84.40
6536;DHT22;34330;52.08032700;5.40923460;2023-04-25T01:29:35;10.10;84.40
6536;DHT22;34330;52.08032700;5.40923460;2023-04-25T01:32:04;10.10;84.40
6536;DHT22;34330;52.08032700;5.40923460;2023-04-25T01:34:33;10.00;84.30
6536;DHT22;34330;52.08032700;5.40923460;2023-04-25T01:37:01;10.00;84.20
6536;DHT22;34330;52.08032700;5.40923460;2023-04-25T01:39:30;10.00;84.30
6536;DHT22;34330;52.08032700;5.40923460;2023-04-25T01:41:59;10.00;84.00
6536;DHT22;34330;52.08032700;5.40923460;2023-04-25T01:44:27;9.90;85.00
6536;DHT22;34330;52.08032700;5.40923460;2023-04-25T01:46:55;9.90;84.70
6536;DHT22;34330;52.08032700;5.40923460;2023-04-25T01:49:23;10.20;84.30
6536;DHT22;34330;52.08032700;5.40923460;2023-04-25T01:51:51;9.80;85.10
6536;DHT22;34330;52.08032700;5.40923460;2023-04-25T01:54:19;9.80;84.90
6536;DHT22;34330;52.08032700;5.40923460;2023-04-25T01:56:51;9.80;85.20
6536;DHT22;34330;52.08032700;5.40923460;2023-04-25T01:59:19;9.80;85.10
6536;DHT22;34330;52.08032700;5.40923460;2023-04-25T02:01:48;9.70;85.10
6536;DHT22;34330;52.08032700;5.40923460;2023-04-25T02:04:16;9.70;85.20
6536;DHT22;34330;52.08032700;5.40923460;2023-04-25T02:06:44;9.70;85.10
6536;DHT22;34330;52.08032700;5.40923460;2023-04-25T02:09:12;9.60;84.90
6536;DHT22;34330;52.08032700;5.40923460;2023-04-25T02:11:41;10.80;84.80
6536;DHT22;34330;52.08032700;5.40923460;2023-04-25T02:14:10;9.50;84.90
6536;DHT22;34330;52.08032700;5.40923460;2023-04-25T02:16:38;9.50;84.80
6536;DHT22;34330;52.08032700;5.40923460;2023-04-25T02:19:06;9.50;84.90
6536;DHT22;34330;52.08032700;5.40923460;2023-04-25T02:21:34;9.40;84.70
6536;DHT22;34330;52.08032700;5.40923460;2023-04-25T02:24:03;9.40;84.80
6536;DHT22;34330;52.08032700;5.40923460;2023-04-25T02:26:31;9.40;84.90
6536;DHT22;34330;52.08032700;5.40923460;2023-04-25T02:28:59;9.30;84.90
6536;DHT22;34330;52.08032700;5.40923460;2023-04-25T02:31:29;9.30;85.00
6536;DHT22;34330;52.08032700;5.40923460;2023-04-25T02:33:57;9.20;85.00
6536;DHT22;34330;52.08032700;5.40923460;2023-04-25T02:36:25;9.20;85.20
6536;DHT22;34330;52.08032700;5.40923460;2023-04-25T02:38:52;9.20;85.10
6536;DHT22;34330;52.08032700;5.40923460;2023-04-25T02:41:20;9.10;85.20
6536;DHT22;34330;52.08032700;5.40923460;2023-04-25T02:43:48;9.10;85.30
6536;DHT22;34330;52.08032700;5.40923460;2023-04-25T02:46:17;9.10;85.00
6536;DHT22;34330;52.08032700;5.40923460;2023-04-25T02:48:59;9.40;85.60
6536;DHT22;34330;52.08032700;5.40923460;2023-04-25T02:51:27;9.00;85.50
6536;DHT22;34330;52.08032700;5.40923460;2023-04-25T02:53:55;9.00;85.60
6536;DHT22;34330;52.08032700;5.40923460;2023-04-25T02:56:23;9.00;85.70
6536;DHT22;34330;52.08032700;5.40923460;2023-04-25T02:58:52;9.00;85.70
6536;DHT22;34330;52.08032700;5.40923460;2023-04-25T03:01:21;8.90;85.80
6536;DHT22;34330;52.08032700;5.40923460;2023-04-25T03:03:49;8.70;85.60
6536;DHT22;34330;52.08032700;5.40923460;2023-04-25T03:06:20;8.90;86.10
6536;DHT22;34330;52.08032700;5.40923460;2023-04-25T03:08:48;8.90;86.50
6536;DHT22;34330;52.08032700;5.40923460;2023-04-25T03:11:16;8.90;86.30
6536;DHT22;34330;52.08032700;5.40923460;2023-04-25T03:13:46;8.90;87.00
6536;DHT22;34330;52.08032700;5.40923460;2023-04-25T03:16:15;8.90;86.10
6536;DHT22;34330;52.08032700;5.40923460;2023-04-25T03:18:43;8.90;86.30
6536;DHT22;34330;52.08032700;5.40923460;2023-04-25T03:21:11;10.10;86.10
6536;DHT22;34330;52.08032700;5.40923460;2023-04-25T03:23:40;8.80;86.00
6536;DHT22;34330;52.08032700;5.40923460;2023-04-25T03:26:08;9.00;86.40
6536;DHT22;34330;52.08032700;5.40923460;2023-04-25T03:28:36;8.80;86.10
6536;DHT22;34330;52.08032700;5.40923460;2023-04-25T03:31:04;8.80;86.10
6536;DHT22;34330;52.08032700;5.40923460;2023-04-25T03:33:32;8.80;86.10
6536;DHT22;34330;52.08032700;5.40923460;2023-04-25T03:36:00;8.70;86.00
6536;DHT22;34330;52.08032700;5.40923460;2023-04-25T03:38:28;9.90;87.30
6536;DHT22;34330;52.08032700;5.40923460;2023-04-25T03:40:57;8.70;86.20
6536;DHT22;34330;52.08032700;5.40923460;2023-04-25T03:43:25;8.70;86.60
6536;DHT22;34330;52.08032700;5.40923460;2023-04-25T03:45:53;8.70;86.80
6536;DHT22;34330;52.08032700;5.40923460;2023-04-25T03:48:22;8.70;86.70
6536;DHT22;34330;52.08032700;5.40923460;2023-04-25T03:50:51;8.70;87.00
6536;DHT22;34330;52.08032700;5.40923460;2023-04-25T03:53:19;8.70;87.30
6536;DHT22;34330;52.08032700;5.40923460;2023-04-25T03:55:47;8.80;87.50
6536;DHT22;34330;52.08032700;5.40923460;2023-04-25T03:58:17;8.70;86.90
6536;DHT22;34330;52.08032700;5.40923460;2023-04-25T04:00:45;8.70;87.50
6536;DHT22;34330;52.08032700;5.40923460;2023-04-25T04:03:13;8.70;87.50
6536;DHT22;34330;52.08032700;5.40923460;2023-04-25T04:05:41;8.80;87.40
6536;DHT22;34330;52.08032700;5.40923460;2023-04-25T04:08:09;8.80;87.60
6536;DHT22;34330;52.08032700;5.40923460;2023-04-25T04:10:37;8.00;86.60
6536;DHT22;34330;52.08032700;5.40923460;2023-04-25T04:13:05;8.90;87.70
6536;DHT22;34330;52.08032700;5.40923460;2023-04-25T04:15:34;8.80;87.60
6536;DHT22;34330;52.08032700;5.40923460;2023-04-25T04:18:02;8.90;87.50
6536;DHT22;34330;52.08032700;5.40923460;2023-04-25T04:20:30;8.90;87.40
6536;DHT22;34330;52.08032700;5.40923460;2023-04-25T04:22:58;8.90;87.40
6536;DHT22;34330;52.08032700;5.40923460;2023-04-25T04:25:27;8.90;87.40
6536;DHT22;34330;52.08032700;5.40923460;2023-04-25T04:27:58;8.90;87.30
6536;DHT22;34330;52.08032700;5.40923460;2023-04-25T04:30:27;9.00;87.00
6536;DHT22;34330;52.08032700;5.40923460;2023-04-25T04:32:59;9.00;87.30
6536;DHT22;34330;52.08032700;5.40923460;2023-04-25T04:35:27;9.00;87.20
6536;DHT22;34330;52.08032700;5.40923460;2023-04-25T04:37:55;9.00;87.10
6536;DHT22;34330;52.08032700;5.40923460;2023-04-25T04:40:23;9.00;86.90
6536;DHT22;34330;52.08032700;5.40923460;2023-04-25T04:42:52;9.00;87.00
6536;DHT22;34330;52.08032700;5.40923460;2023-04-25T04:45:23;9.00;87.10
6536;DHT22;34330;52.08032700;5.40923460;2023-04-25T04:47:50;9.00;87.00
6536;DHT22;34330;52.08032700;5.40923460;2023-04-25T04:50:20;9.00;86.90
6536;DHT22;34330;52.08032700;5.40923460;2023-04-25T04:52:48;9.30;87.50
6536;DHT22;34330;52.08032700;5.40923460;2023-04-25T04:55:16;9.00;87.30
6536;DHT22;34330;52.08032700;5.40923460;2023-04-25T04:57:44;9.00;87.40
6536;DHT22;34330;52.08032700;5.40923460;2023-04-25T05:00:13;9.00;87.30
6536;DHT22;34330;52.08032700;5.40923460;2023-04-25T05:02:42;9.00;87.10
6536;DHT22;34330;52.08032700;5.40923460;2023-04-25T05:05:10;9.00;87.30
6536;DHT22;34330;52.08032700;5.40923460;2023-04-25T05:07:39;9.00;87.00
6536;DHT22;34330;52.08032700;5.40923460;2023-04-25T05:10:08;9.10;87.30
6536;DHT22;34330;52.08032700;5.40923460;2023-04-25T05:12:36;9.10;87.50
6536;DHT22;34330;52.08032700;5.40923460;2023-04-25T05:15:05;9.10;87.50
6536;DHT22;34330;52.08032700;5.40923460;2023-04-25T05:17:33;9.10;87.50
6536;DHT22;34330;52.08032700;5.40923460;2023-04-25T05:20:01;9.10;87.20
6536;DHT22;34330;52.08032700;5.40923460;2023-04-25T05:22:29;9.20;87.10
6536;DHT22;34330;52.08032700;5.40923460;2023-04-25T05:24:58;9.20;87.10
6536;DHT22;34330;52.08032700;5.40923460;2023-04-25T05:27:26;9.20;87.10
6536;DHT22;34330;52.08032700;5.40923460;2023-04-25T05:29:54;9.50;87.90
6536;DHT22;34330;52.08032700;5.40923460;2023-04-25T05:32:22;9.20;86.80
6536;DHT22;34330;52.08032700;5.40923460;2023-04-25T05:34:51;9.20;86.80
6536;DHT22;34330;52.08032700;5.40923460;2023-04-25T05:37:19;9.30;86.70
6536;DHT22;34330;52.08032700;5.40923460;2023-04-25T05:39:48;9.30;86.70
6536;DHT22;34330;52.08032700;5.40923460;2023-04-25T05:42:18;7.90;85.40
6536;DHT22;34330;52.08032700;5.40923460;2023-04-25T05:44:46;9.30;87.20
6536;DHT22;34330;52.08032700;5.40923460;2023-04-25T05:47:14;9.30;86.70
6536;DHT22;34330;52.08032700;5.40923460;2023-04-25T05:49:43;9.30;86.70
6536;DHT22;34330;52.08032700;5.40923460;2023-04-25T05:52:11;9.40;87.00
6536;DHT22;34330;52.08032700;5.40923460;2023-04-25T05:54:39;9.40;86.90
6536;DHT22;34330;52.08032700;5.40923460;2023-04-25T05:57:07;9.50;87.10
6536;DHT22;34330;52.08032700;5.40923460;2023-04-25T05:59:36;9.40;86.80
6536;DHT22;34330;52.08032700;5.40923460;2023-04-25T06:02:04;9.80;86.80
6536;DHT22;34330;52.08032700;5.40923460;2023-04-25T06:04:33;9.50;86.80
6536;DHT22;34330;52.08032700;5.40923460;2023-04-25T06:07:01;9.50;86.50
6536;DHT22;34330;52.08032700;5.40923460;2023-04-25T06:09:29;9.90;86.70
6536;DHT22;34330;52.08032700;5.40923460;2023-04-25T06:11:57;9.60;86.40
6536;DHT22;34330;52.08032700;5.40923460;2023-04-25T06:14:25;9.60;86.40
6536;DHT22;34330;52.08032700;5.40923460;2023-04-25T06:16:56;9.70;86.40
6536;DHT22;34330;52.08032700;5.40923460;2023-04-25T06:19:24;9.70;86.10
6536;DHT22;34330;52.08032700;5.40923460;2023-04-25T06:21:52;9.80;85.90
6536;DHT22;34330;52.08032700;5.40923460;2023-04-25T06:24:20;9.80;86.10
6536;DHT22;34330;52.08032700;5.40923460;2023-04-25T06:26:48;9.90;86.20
6536;DHT22;34330;52.08032700;5.40923460;2023-04-25T06:29:16;9.90;85.60
6536;DHT22;34330;52.08032700;5.40923460;2023-04-25T06:31:44;9.90;85.60
6536;DHT22;34330;52.08032700;5.40923460;2023-04-25T06:34:14;10.00;84.40
6536;DHT22;34330;52.08032700;5.40923460;2023-04-25T06:36:42;10.00;84.00
6536;DHT22;34330;52.08032700;5.40923460;2023-04-25T06:39:11;10.10;83.70
6536;DHT22;34330;52.08032700;5.40923460;2023-04-25T06:41:39;10.00;83.30
6536;DHT22;34330;52.08032700;5.40923460;2023-04-25T06:44:07;10.10;83.20
6536;DHT22;34330;52.08032700;5.40923460;2023-04-25T06:46:36;10.10;83.20
6536;DHT22;34330;52.08032700;5.40923460;2023-04-25T06:49:04;10.10;83.50
6536;DHT22;34330;52.08032700;5.40923460;2023-04-25T06:51:33;10.10;83.50
6536;DHT22;34330;52.08032700;5.40923460;2023-04-25T06:54:01;10.20;84.40
6536;DHT22;34330;52.08032700;5.40923460;2023-04-25T06:56:30;10.30;83.70
6536;DHT22;34330;52.08032700;5.40923460;2023-04-25T06:58:58;10.40;83.70
6536;DHT22;34330;52.08032700;5.40923460;2023-04-25T07:01:27;10.40;82.70
6536;DHT22;34330;52.08032700;5.40923460;2023-04-25T07:03:55;10.50;82.50
6536;DHT22;34330;52.08032700;5.40923460;2023-04-25T07:06:23;10.50;82.10
6536;DHT22;34330;52.08032700;5.40923460;2023-04-25T07:08:54;10.60;81.70
6536;DHT22;34330;52.08032700;5.40923460;2023-04-25T07:11:22;10.60;81.20
6536;DHT22;34330;52.08032700;5.40923460;2023-04-25T07:13:50;10.60;81.00
6536;DHT22;34330;52.08032700;5.40923460;2023-04-25T07:16:17;10.70;80.90
6536;DHT22;34330;52.08032700;5.40923460;2023-04-25T07:18:45;10.60;80.60
6536;DHT22;34330;52.08032700;5.40923460;2023-04-25T07:21:13;10.60;80.30
6536;DHT22;34330;52.08032700;5.40923460;2023-04-25T07:23:41;10.70;80.20
6536;DHT22;34330;52.08032700;5.40923460;2023-04-25T07:26:10;10.70;80.00
6536;DHT22;34330;52.08032700;5.40923460;2023-04-25T07:28:38;10.70;79.70
6536;DHT22;34330;52.08032700;5.40923460;2023-04-25T07:31:06;10.70;80.30
6536;DHT22;34330;52.08032700;5.40923460;2023-04-25T07:33:34;10.70;80.60
6536;DHT22;34330;52.08032700;5.40923460;2023-04-25T07:36:02;10.80;80.70
6536;DHT22;34330;52.08032700;5.40923460;2023-04-25T07:38:30;10.90;80.90
6536;DHT22;34330;52.08032700;5.40923460;2023-04-25T07:40:59;11.00;80.40
6536;DHT22;34330;52.08032700;5.40923460;2023-04-25T07:43:28;11.00;80.90
6536;DHT22;34330;52.08032700;5.40923460;2023-04-25T07:45:56;11.20;79.60
6536;DHT22;34330;52.08032700;5.40923460;2023-04-25T07:48:24;11.30;80.10
6536;DHT22;34330;52.08032700;5.40923460;2023-04-25T07:50:52;11.60;79.40
6536;DHT22;34330;52.08032700;5.40923460;2023-04-25T07:53:20;11.50;78.30
6536;DHT22;34330;52.08032700;5.40923460;2023-04-25T07:55:48;11.60;76.30
6536;DHT22;34330;52.08032700;5.40923460;2023-04-25T07:58:17;11.90;77.10
6536;DHT22;34330;52.08032700;5.40923460;2023-04-25T08:00:50;11.70;77.00
6536;DHT22;34330;52.08032700;5.40923460;2023-04-25T08:03:18;11.80;76.70
6536;DHT22;34330;52.08032700;5.40923460;2023-04-25T08:05:46;11.80;77.00
6536;DHT22;34330;52.08032700;5.40923460;2023-04-25T08:08:14;11.90;77.00
6536;DHT22;34330;52.08032700;5.40923460;2023-04-25T08:10:42;12.00;75.70
6536;DHT22;34330;52.08032700;5.40923460;2023-04-25T08:13:10;12.00;74.60
6536;DHT22;34330;52.08032700;5.40923460;2023-04-25T08:15:39;12.10;74.50
6536;DHT22;34330;52.08032700;5.40923460;2023-04-25T08:18:08;12.10;74.50
6536;DHT22;34330;52.08032700;5.40923460;2023-04-25T08:20:36;12.10;74.80
6536;DHT22;34330;52.08032700;5.40923460;2023-04-25T08:23:04;12.20;74.30
6536;DHT22;34330;52.08032700;5.40923460;2023-04-25T08:25:32;12.20;73.20
6536;DHT22;34330;52.08032700;5.40923460;2023-04-25T08:28:00;12.30;73.20
6536;DHT22;34330;52.08032700;5.40923460;2023-04-25T08:30:29;12.30;73.10
6536;DHT22;34330;52.08032700;5.40923460;2023-04-25T08:32:57;12.40;73.10
6536;DHT22;34330;52.08032700;5.40923460;2023-04-25T08:35:27;12.50;73.80
6536;DHT22;34330;52.08032700;5.40923460;2023-04-25T08:37:55;12.50;70.80
6536;DHT22;34330;52.08032700;5.40923460;2023-04-25T08:40:23;12.60;70.40
6536;DHT22;34330;52.08032700;5.40923460;2023-04-25T08:42:57;12.60;68.80
6536;DHT22;34330;52.08032700;5.40923460;2023-04-25T08:45:26;12.50;70.10
6536;DHT22;34330;52.08032700;5.40923460;2023-04-25T08:47:57;12.50;68.60
6536;DHT22;34330;52.08032700;5.40923460;2023-04-25T08:50:26;12.50;68.60
6536;DHT22;34330;52.08032700;5.40923460;2023-04-25T08:52:57;12.40;69.60
6536;DHT22;34330;52.08032700;5.40923460;2023-04-25T08:55:28;12.40;68.90
6536;DHT22;34330;52.08032700;5.40923460;2023-04-25T08:57:57;12.40;68.10
6536;DHT22;34330;52.08032700;5.40923460;2023-04-25T09:00:27;12.50;67.90
6536;DHT22;34330;52.08032700;5.40923460;2023-04-25T09:02:56;12.50;67.30
6536;DHT22;34330;52.08032700;5.40923460;2023-04-25T09:05:27;12.60;66.90
6536;DHT22;34330;52.08032700;5.40923460;2023-04-25T09:07:55;12.70;67.80
6536;DHT22;34330;52.08032700;5.40923460;2023-04-25T09:10:24;12.70;67.10
6536;DHT22;34330;52.08032700;5.40923460;2023-04-25T09:13:06;12.80;65.50
6536;DHT22;34330;52.08032700;5.40923460;2023-04-25T09:15:47;12.80;64.20
6536;DHT22;34330;52.08032700;5.40923460;2023-04-25T09:18:22;12.90;65.20
6536;DHT22;34330;52.08032700;5.40923460;2023-04-25T09:21:05;12.90;64.80
6536;DHT22;34330;52.08032700;5.40923460;2023-04-25T09:23:40;12.90;65.90
6536;DHT22;34330;52.08032700;5.40923460;2023-04-25T09:26:09;13.00;67.20
6536;DHT22;34330;52.08032700;5.40923460;2023-04-25T09:28:37;13.00;66.90
6536;DHT22;34330;52.08032700;5.40923460;2023-04-25T09:31:05;13.10;67.10
6536;DHT22;34330;52.08032700;5.40923460;2023-04-25T09:33:33;13.10;67.20
6536;DHT22;34330;52.08032700;5.40923460;2023-04-25T09:36:06;13.20;67.10
6536;DHT22;34330;52.08032700;5.40923460;2023-04-25T09:38:41;13.20;66.00
6536;DHT22;34330;52.08032700;5.40923460;2023-04-25T09:41:09;13.20;66.40
6536;DHT22;34330;52.08032700;5.40923460;2023-04-25T09:43:38;13.20;67.20
6536;DHT22;34330;52.08032700;5.40923460;2023-04-25T09:46:09;13.30;68.10
6536;DHT22;34330;52.08032700;5.40923460;2023-04-25T09:48:38;13.40;66.80
6536;DHT22;34330;52.08032700;5.40923460;2023-04-25T09:51:09;13.30;65.90
6536;DHT22;34330;52.08032700;5.40923460;2023-04-25T09:53:38;13.30;65.60
6536;DHT22;34330;52.08032700;5.40923460;2023-04-25T09:56:07;13.30;65.30
6536;DHT22;34330;52.08032700;5.40923460;2023-04-25T09:58:36;15.00;66.70
6536;DHT22;34330;52.08032700;5.40923460;2023-04-25T10:01:06;13.30;66.30
6536;DHT22;34330;52.08032700;5.40923460;2023-04-25T10:03:35;13.30;66.50
6536;DHT22;34330;52.08032700;5.40923460;2023-04-25T10:06:08;13.30;66.20
6536;DHT22;34330;52.08032700;5.40923460;2023-04-25T10:08:38;13.60;65.80
6536;DHT22;34330;52.08032700;5.40923460;2023-04-25T10:11:08;13.30;66.00
6536;DHT22;34330;52.08032700;5.40923460;2023-04-25T10:13:36;11.00;63.90
6536;DHT22;34330;52.08032700;5.40923460;2023-04-25T10:16:05;13.20;66.80
6536;DHT22;34330;52.08032700;5.40923460;2023-04-25T10:18:33;13.20;66.00
6536;DHT22;34330;52.08032700;5.40923460;2023-04-25T10:21:03;13.20;66.00
6536;DHT22;34330;52.08032700;5.40923460;2023-04-25T10:23:33;13.20;66.60
6536;DHT22;34330;52.08032700;5.40923460;2023-04-25T10:26:02;13.40;66.50
6536;DHT22;34330;52.08032700;5.40923460;2023-04-25T10:28:56;13.30;66.40
6536;DHT22;34330;52.08032700;5.40923460;2023-04-25T10:31:24;13.40;65.70
6536;DHT22;34330;52.08032700;5.40923460;2023-04-25T10:33:53;13.50;67.00
6536;DHT22;34330;52.08032700;5.40923460;2023-04-25T10:36:22;13.50;66.60
6536;DHT22;34330;52.08032700;5.40923460;2023-04-25T10:38:52;13.60;65.20
6536;DHT22;34330;52.08032700;5.40923460;2023-04-25T10:41:21;13.70;62.90
6536;DHT22;34330;52.08032700;5.40923460;2023-04-25T10:43:50;13.70;63.00
6536;DHT22;34330;52.08032700;5.40923460;2023-04-25T10:46:27;13.80;61.90
6536;DHT22;34330;52.08032700;5.40923460;2023-04-25T10:48:57;13.80;62.10
6536;DHT22;34330;52.08032700;5.40923460;2023-04-25T10:51:27;13.90;62.60
6536;DHT22;34330;52.08032700;5.40923460;2023-04-25T10:54:08;13.90;63.60
6536;DHT22;34330;52.08032700;5.40923460;2023-04-25T10:56:37;14.00;62.30
6536;DHT22;34330;52.08032700;5.40923460;2023-04-25T10:59:08;14.10;62.90
6536;DHT22;34330;52.08032700;5.40923460;2023-04-25T11:01:39;14.80;62.90
6536;DHT22;34330;52.08032700;5.40923460;2023-04-25T11:04:19;14.40;61.90
6536;DHT22;34330;52.08032700;5.40923460;2023-04-25T11:07:02;14.50;59.50
6536;DHT22;34330;52.08032700;5.40923460;2023-04-25T11:09:52;14.70;60.20
6536;DHT22;34330;52.08032700;5.40923460;2023-04-25T11:12:20;14.80;59.30
6536;DHT22;34330;52.08032700;5.40923460;2023-04-25T11:14:48;14.90;58.80
6536;DHT22;34330;52.08032700;5.40923460;2023-04-25T11:17:16;14.90;58.30
6536;DHT22;34330;52.08032700;5.40923460;2023-04-25T11:19:48;15.00;58.30
6536;DHT22;34330;52.08032700;5.40923460;2023-04-25T11:22:16;15.00;57.80
6536;DHT22;34330;52.08032700;5.40923460;2023-04-25T11:24:45;15.00;59.40
6536;DHT22;34330;52.08032700;5.40923460;2023-04-25T11:27:14;15.00;59.70
6536;DHT22;34330;52.08032700;5.40923460;2023-04-25T11:29:42;14.90;60.30
6536;DHT22;34330;52.08032700;5.40923460;2023-04-25T11:32:10;14.90;60.60
6536;DHT22;34330;52.08032700;5.40923460;2023-04-25T11:34:39;14.80;61.40
6536;DHT22;34330;52.08032700;5.40923460;2023-04-25T11:37:07;14.70;61.20
6536;DHT22;34330;52.08032700;5.40923460;2023-04-25T11:39:35;14.70;62.20
6536;DHT22;34330;52.08032700;5.40923460;2023-04-25T11:42:04;14.70;63.20
6536;DHT22;34330;52.08032700;5.40923460;2023-04-25T11:44:40;14.70;64.00
6536;DHT22;34330;52.08032700;5.40923460;2023-04-25T11:47:08;14.80;62.50
6536;DHT22;34330;52.08032700;5.40923460;2023-04-25T11:49:36;14.80;61.80
6536;DHT22;34330;52.08032700;5.40923460;2023-04-25T11:52:06;14.90;61.20
6536;DHT22;34330;52.08032700;5.40923460;2023-04-25T11:54:35;14.90;61.10
6536;DHT22;34330;52.08032700;5.40923460;2023-04-25T11:57:04;14.90;61.10
6536;DHT22;34330;52.08032700;5.40923460;2023-04-25T11:59:33;14.90;59.50
6536;DHT22;34330;52.08032700;5.40923460;2023-04-25T12:02:02;14.90;59.60
6536;DHT22;34330;52.08032700;5.40923460;2023-04-25T12:04:33;14.90;58.50
6536;DHT22;34330;52.08032700;5.40923460;2023-04-25T12:07:01;14.90;58.90
6536;DHT22;34330;52.08032700;5.40923460;2023-04-25T12:09:30;14.90;57.60
6536;DHT22;34330;52.08032700;5.40923460;2023-04-25T12:11:59;15.00;58.50
6536;DHT22;34330;52.08032700;5.40923460;2023-04-25T12:14:31;15.10;59.20
6536;DHT22;34330;52.08032700;5.40923460;2023-04-25T12:17:00;15.10;59.10
6536;DHT22;34330;52.08032700;5.40923460;2023-04-25T12:19:33;15.20;58.10
6536;DHT22;34330;52.08032700;5.40923460;2023-04-25T12:22:02;15.30;57.50
6536;DHT22;34330;52.08032700;5.40923460;2023-04-25T12:24:34;15.30;56.60
6536;DHT22;34330;52.08032700;5.40923460;2023-04-25T12:27:06;15.30;55.30
6536;DHT22;34330;52.08032700;5.40923460;2023-04-25T12:29:34;15.30;53.90
6536;DHT22;34330;52.08032700;5.40923460;2023-04-25T12:32:05;15.20;53.80
6536;DHT22;34330;52.08032700;5.40923460;2023-04-25T12:34:34;15.10;54.10
6536;DHT22;34330;52.08032700;5.40923460;2023-04-25T12:37:02;15.00;53.20
6536;DHT22;34330;52.08032700;5.40923460;2023-04-25T12:39:31;15.00;54.20
6536;DHT22;34330;52.08032700;5.40923460;2023-04-25T12:41:59;15.00;54.40
6536;DHT22;34330;52.08032700;5.40923460;2023-04-25T12:44:27;14.90;53.80
6536;DHT22;34330;52.08032700;5.40923460;2023-04-25T12:46:55;14.90;55.00
6536;DHT22;34330;52.08032700;5.40923460;2023-04-25T12:49:23;14.90;54.40
6536;DHT22;34330;52.08032700;5.40923460;2023-04-25T12:51:53;14.90;54.00
6536;DHT22;34330;52.08032700;5.40923460;2023-04-25T12:54:21;15.10;54.10
6536;DHT22;34330;52.08032700;5.40923460;2023-04-25T12:56:49;14.90;54.80
6536;DHT22;34330;52.08032700;5.40923460;2023-04-25T12:59:17;14.90;55.00
6536;DHT22;34330;52.08032700;5.40923460;2023-04-25T13:01:46;14.90;54.80
6536;DHT22;34330;52.08032700;5.40923460;2023-04-25T13:04:15;14.90;53.30
6536;DHT22;34330;52.08032700;5.40923460;2023-04-25T13:06:44;14.90;54.40
6536;DHT22;34330;52.08032700;5.40923460;2023-04-25T13:09:14;14.90;54.50
6536;DHT22;34330;52.08032700;5.40923460;2023-04-25T13:11:42;14.90;53.90
6536;DHT22;34330;52.08032700;5.40923460;2023-04-25T13:14:10;15.30;55.40
6536;DHT22;34330;52.08032700;5.40923460;2023-04-25T13:16:38;15.00;54.90
6536;DHT22;34330;52.08032700;5.40923460;2023-04-25T13:19:08;15.10;55.10
6536;DHT22;34330;52.08032700;5.40923460;2023-04-25T13:21:38;15.10;54.70
6536;DHT22;34330;52.08032700;5.40923460;2023-04-25T13:24:06;15.20;55.10
6536;DHT22;34330;52.08032700;5.40923460;2023-04-25T13:26:36;15.20;54.80
6536;DHT22;34330;52.08032700;5.40923460;2023-04-25T13:29:03;15.30;53.70
6536;DHT22;34330;52.08032700;5.40923460;2023-04-25T13:31:31;15.30;53.30
6536;DHT22;34330;52.08032700;5.40923460;2023-04-25T13:33:59;15.30;53.00
6536;DHT22;34330;52.08032700;5.40923460;2023-04-25T13:36:27;15.30;51.80
6536;DHT22;34330;52.08032700;5.40923460;2023-04-25T13:38:55;15.30;51.50
6536;DHT22;34330;52.08032700;5.40923460;2023-04-25T13:41:23;15.20;52.00
6536;DHT22;34330;52.08032700;5.40923460;2023-04-25T13:43:52;15.20;52.20
6536;DHT22;34330;52.08032700;5.40923460;2023-04-25T13:46:20;15.20;51.70